Castle Airport Merced US
ICAO: KMER
IATA: MER
Category: Medium
Scheduled Services: No

Elevation: 191 ft
TransAlt. 18000 ft.

Airport Communications:
NORCAL APP/DEP:120.95
AWO 3:124.475
CTAF/UNICOM:123.075

KMER Zoom In..

Runways:

(A) RW 13 length 11802 ft width 150 ft
---- / hdg 126

(B) RW 31 length 11802 ft width 150 ft
ILS 109.50 / hdg 306

Location; KMER
Day. 08 / Time. 04.35 Zulu
* Altimeter: 29.91
* Temperature: 13° c. 55.4°f.
* Wind from: 320° Speed 09 kn.
Dewpoint: 10° c.
Visibility: 10 Statute Miles.
Clouds: Clear (automated report).

KMER 080435Z AUTO 32009KT 10SM CLR 13/10 A2991 RMK AO1


Wind From 320°
Speed 09 kn.

 
 
jpsmedia worldairports.se 2020   terms of use